createdAt,value
2023-02-04T00:01:24.807Z,15.13
2023-02-04T00:03:52.353Z,20.33
2023-02-04T00:06:19.174Z,21.85
2023-02-04T00:08:46.054Z,18.63
2023-02-04T00:11:13.047Z,18.83
2023-02-04T00:13:39.785Z,20.38
2023-02-04T00:16:07.191Z,16.70
2023-02-04T00:18:35.231Z,18.50
2023-02-04T00:21:02.015Z,22.77
2023-02-04T00:23:29.011Z,17.83
2023-02-04T00:25:58.526Z,16.27
2023-02-04T00:28:25.346Z,20.67
2023-02-04T00:30:52.172Z,19.40
2023-02-04T00:33:18.953Z,16.52
2023-02-04T00:35:45.839Z,20.30
2023-02-04T00:38:13.766Z,23.73
2023-02-04T00:40:40.761Z,21.30
2023-02-04T00:43:07.538Z,20.30
2023-02-04T00:45:34.374Z,19.20
2023-02-04T00:48:01.254Z,18.95
2023-02-04T00:50:29.182Z,18.98
2023-02-04T00:52:56.141Z,20.23
2023-02-04T00:55:23.330Z,21.65
2023-02-04T00:57:54.605Z,21.98
2023-02-04T01:00:21.401Z,17.55
2023-02-04T01:02:48.347Z,22.65
2023-02-04T01:05:15.306Z,16.90
2023-02-04T01:07:42.227Z,21.23
2023-02-04T01:10:09.627Z,22.45
2023-02-04T01:12:36.857Z,23.05
2023-02-04T01:15:05.741Z,18.17
2023-02-04T01:17:32.576Z,21.52
2023-02-04T01:19:59.403Z,26.52
2023-02-04T01:22:26.169Z,23.35
2023-02-04T01:24:53.049Z,18.45
2023-02-04T01:27:38.642Z,21.33
2023-02-04T01:30:06.893Z,24.08
2023-02-04T01:32:34.345Z,23.85
2023-02-04T01:35:01.130Z,21.88
2023-02-04T01:37:27.919Z,23.63
2023-02-04T01:39:54.733Z,21.02
2023-02-04T01:42:21.788Z,20.02
2023-02-04T01:44:49.114Z,20.50
2023-02-04T01:47:16.291Z,24.75
2023-02-04T01:49:43.516Z,28.60
2023-02-04T01:52:12.308Z,22.55
2023-02-04T01:54:39.522Z,22.38
2023-02-04T01:57:14.672Z,18.48
2023-02-04T01:59:47.890Z,24.73
2023-02-04T02:02:41.319Z,23.13
2023-02-04T02:05:24.739Z,17.02
2023-02-04T02:07:56.342Z,23.40
2023-02-04T02:10:24.551Z,16.25
2023-02-04T02:12:53.250Z,20.05
2023-02-04T02:15:20.522Z,17.58
2023-02-04T02:17:47.904Z,18.08
2023-02-04T02:20:18.874Z,19.45
2023-02-04T02:23:01.350Z,19.33
2023-02-04T02:25:28.344Z,23.17
2023-02-04T02:27:57.439Z,21.77
2023-02-04T02:30:25.066Z,20.10
2023-02-04T02:32:52.901Z,21.33
2023-02-04T02:35:20.650Z,24.23
2023-02-04T02:37:47.508Z,18.10
2023-02-04T02:40:15.234Z,22.85
2023-02-04T02:42:45.562Z,20.00
2023-02-04T02:45:27.078Z,18.95
2023-02-04T02:47:57.396Z,24.08
2023-02-04T02:50:29.885Z,18.25
2023-02-04T02:52:57.951Z,22.45
2023-02-04T02:55:28.519Z,17.73
2023-02-04T02:57:57.286Z,25.02
2023-02-04T03:00:30.301Z,18.92
2023-02-04T03:03:23.433Z,20.58
2023-02-04T03:05:57.388Z,20.00
2023-02-04T03:08:24.505Z,18.00
2023-02-04T03:10:51.709Z,13.85
2023-02-04T03:13:19.444Z,18.33
2023-02-04T03:15:48.594Z,21.25
2023-02-04T03:18:19.899Z,22.45
2023-02-04T03:20:50.332Z,19.17
2023-02-04T03:23:18.791Z,14.57
2023-02-04T03:25:46.020Z,21.02
2023-02-04T03:28:12.943Z,21.42
2023-02-04T03:30:40.007Z,19.67
2023-02-04T03:33:06.948Z,18.33
2023-02-04T03:35:33.890Z,15.60
2023-02-04T03:38:00.817Z,15.82
2023-02-04T03:40:27.656Z,15.52
2023-02-04T03:42:54.470Z,22.10
2023-02-04T03:45:21.367Z,16.60
2023-02-04T03:47:48.217Z,18.77
2023-02-04T03:50:15.445Z,21.60
2023-02-04T03:52:42.220Z,15.18
2023-02-04T03:55:09.129Z,14.55
2023-02-04T03:57:35.993Z,16.98
2023-02-04T04:00:03.540Z,20.33
2023-02-04T04:02:40.289Z,15.15
2023-02-04T04:05:09.273Z,16.25
2023-02-04T04:07:36.184Z,18.40
2023-02-04T04:10:04.227Z,14.25
2023-02-04T04:12:31.023Z,17.27
2023-02-04T04:14:57.850Z,17.05
2023-02-04T04:17:24.715Z,14.02
2023-02-04T04:19:51.527Z,14.73
2023-02-04T04:22:18.505Z,15.98
2023-02-04T04:24:45.420Z,18.40
2023-02-04T04:27:12.262Z,12.50
2023-02-04T04:29:39.196Z,14.35
2023-02-04T04:32:06.341Z,17.80
2023-02-04T04:34:33.110Z,11.90
2023-02-04T04:36:59.860Z,17.95
2023-02-04T04:39:26.649Z,17.15
2023-02-04T04:41:53.389Z,18.52
2023-02-04T04:44:20.192Z,22.92
2023-02-04T04:46:47.049Z,15.38
2023-02-04T04:49:13.906Z,11.30
2023-02-04T04:51:40.637Z,17.25
2023-02-04T04:54:08.209Z,20.95
2023-02-04T04:56:35.086Z,17.17
2023-02-04T04:59:03.280Z,13.15
2023-02-04T05:01:32.937Z,15.65
2023-02-04T05:03:59.802Z,15.52
2023-02-04T05:06:26.713Z,14.77
2023-02-04T05:08:53.896Z,13.68
2023-02-04T05:11:21.650Z,14.20
2023-02-04T05:13:48.542Z,13.95
2023-02-04T05:16:16.283Z,18.67
2023-02-04T05:18:43.089Z,18.33
2023-02-04T05:21:10.032Z,16.40
2023-02-04T05:23:36.859Z,11.40
2023-02-04T05:26:03.830Z,13.57
2023-02-04T05:28:30.646Z,20.10
2023-02-04T05:30:57.452Z,15.45
2023-02-04T05:33:24.338Z,19.92
2023-02-04T05:35:51.255Z,14.63
2023-02-04T05:38:17.992Z,12.00
2023-02-04T05:40:44.797Z,12.40
2023-02-04T05:43:11.618Z,17.50
2023-02-04T05:45:38.463Z,15.35
2023-02-04T05:48:05.488Z,15.70
2023-02-04T05:50:32.576Z,18.70
2023-02-04T05:53:09.482Z,17.27
2023-02-04T05:55:36.408Z,19.98
2023-02-04T05:58:03.309Z,21.08
2023-02-04T06:00:30.451Z,16.73
2023-02-04T06:02:57.414Z,21.75
2023-02-04T06:05:24.364Z,19.60
2023-02-04T06:07:51.304Z,22.00
2023-02-04T06:10:18.255Z,21.65
2023-02-04T06:12:45.115Z,17.05
2023-02-04T06:15:13.157Z,21.80
2023-02-04T06:17:40.251Z,18.20
2023-02-04T06:20:08.725Z,20.13
2023-02-04T06:22:35.477Z,21.58
2023-02-04T06:25:02.246Z,17.95
2023-02-04T06:27:29.028Z,19.27
2023-02-04T06:29:57.229Z,18.48
2023-02-04T06:32:24.241Z,14.50
2023-02-04T06:34:51.072Z,18.35
2023-02-04T06:37:17.965Z,18.10
2023-02-04T06:39:44.859Z,18.60
2023-02-04T06:42:11.869Z,14.85
2023-02-04T06:44:38.755Z,14.80
2023-02-04T06:47:05.520Z,23.98
2023-02-04T06:49:32.329Z,17.55
2023-02-04T06:51:59.229Z,17.75
2023-02-04T06:54:25.997Z,16.02
2023-02-04T06:56:52.829Z,18.75
2023-02-04T06:59:19.585Z,16.92
2023-02-04T07:01:46.613Z,16.17
2023-02-04T07:04:13.453Z,18.65
2023-02-04T07:06:40.181Z,15.40
2023-02-04T07:09:06.925Z,16.88
2023-02-04T07:11:33.722Z,19.17
2023-02-04T07:14:00.541Z,17.05
2023-02-04T07:16:27.303Z,18.15
2023-02-04T07:18:54.107Z,20.13
2023-02-04T07:21:21.005Z,16.42
2023-02-04T07:23:48.006Z,15.57
2023-02-04T07:26:14.856Z,16.73
2023-02-04T07:28:42.358Z,19.15
2023-02-04T07:31:09.376Z,14.70
2023-02-04T07:33:36.509Z,18.63
2023-02-04T07:36:03.464Z,19.15
2023-02-04T07:38:30.515Z,18.80
2023-02-04T07:40:57.450Z,17.58
2023-02-04T07:43:24.880Z,16.08
2023-02-04T07:45:51.758Z,18.95
2023-02-04T07:48:18.624Z,21.75
2023-02-04T07:50:45.416Z,19.40
2023-02-04T07:53:12.347Z,18.35
2023-02-04T07:55:39.149Z,17.50
2023-02-04T07:58:06.053Z,14.57
2023-02-04T08:00:33.250Z,20.10
2023-02-04T08:03:00.406Z,20.23
2023-02-04T08:05:27.217Z,21.60
2023-02-04T08:07:54.051Z,16.45
2023-02-04T08:10:21.483Z,18.55
2023-02-04T08:12:48.740Z,24.27
2023-02-04T08:15:15.617Z,22.92
2023-02-04T08:17:42.351Z,17.02
2023-02-04T08:20:10.761Z,21.80
2023-02-04T08:22:37.714Z,22.60
2023-02-04T08:25:05.899Z,19.73
2023-02-04T08:27:32.748Z,20.77
2023-02-04T08:29:59.489Z,20.85
2023-02-04T08:32:29.213Z,23.05
2023-02-04T08:34:56.027Z,23.73
2023-02-04T08:37:23.202Z,26.48
2023-02-04T08:39:50.480Z,23.33
2023-02-04T08:42:17.299Z,20.52
2023-02-04T08:44:44.244Z,24.50
2023-02-04T08:47:11.777Z,17.77
2023-02-04T08:49:38.618Z,22.35
2023-02-04T08:52:07.427Z,28.35
2023-02-04T08:54:35.359Z,24.08
2023-02-04T08:57:03.052Z,25.80
2023-02-04T08:59:30.114Z,25.45
2023-02-04T09:01:57.016Z,29.45
2023-02-04T09:04:24.765Z,18.85
2023-02-04T09:06:52.135Z,24.63
2023-02-04T09:09:21.630Z,21.10
2023-02-04T09:11:49.413Z,19.45
2023-02-04T09:14:16.228Z,30.38
2023-02-04T09:16:43.113Z,17.95
2023-02-04T09:19:12.579Z,21.13
2023-02-04T09:21:39.408Z,26.30
2023-02-04T09:24:06.291Z,20.20
2023-02-04T09:26:33.172Z,24.88
2023-02-04T09:28:59.931Z,21.67
2023-02-04T09:31:26.855Z,24.55
2023-02-04T09:33:54.028Z,21.80
2023-02-04T09:36:20.803Z,22.58
2023-02-04T09:38:47.573Z,21.90
2023-02-04T09:41:15.408Z,24.95
2023-02-04T09:43:45.410Z,20.85
2023-02-04T09:46:25.402Z,16.08
2023-02-04T09:48:52.553Z,20.52
2023-02-04T09:51:27.158Z,19.38
2023-02-04T09:54:03.785Z,22.88
2023-02-04T09:56:31.325Z,29.40
2023-02-04T09:58:58.127Z,25.50
2023-02-04T10:01:27.842Z,24.95
2023-02-04T10:04:00.960Z,25.17
2023-02-04T10:06:27.862Z,22.10
2023-02-04T10:08:55.613Z,27.10
2023-02-04T10:11:26.452Z,23.15
2023-02-04T10:13:56.395Z,21.20
2023-02-04T10:16:33.518Z,28.13
2023-02-04T10:19:06.153Z,24.65
2023-02-04T10:21:39.742Z,19.63
2023-02-04T10:24:21.394Z,26.20
2023-02-04T10:26:48.806Z,24.58
2023-02-04T10:29:25.489Z,33.75
2023-02-04T10:31:53.284Z,22.30
2023-02-04T10:34:34.481Z,22.38
2023-02-04T10:37:20.233Z,26.90
2023-02-04T10:39:49.127Z,23.77
2023-02-04T10:42:27.691Z,24.08
2023-02-04T10:44:55.231Z,25.10
2023-02-04T10:47:30.719Z,23.65
2023-02-04T10:50:04.696Z,31.33
2023-02-04T10:53:17.028Z,22.95
2023-02-04T10:55:46.261Z,25.48
2023-02-04T10:58:20.250Z,27.15
2023-02-04T11:00:47.189Z,23.02
2023-02-04T11:03:26.879Z,20.95
2023-02-04T11:05:58.602Z,23.40
2023-02-04T11:08:36.368Z,20.50
2023-02-04T11:11:19.447Z,28.48
2023-02-04T11:13:52.087Z,22.77
2023-02-04T11:16:19.000Z,27.50
2023-02-04T11:18:55.385Z,27.25
2023-02-04T11:21:32.262Z,24.38
2023-02-04T11:24:11.056Z,28.85
2023-02-04T11:26:43.113Z,32.22
2023-02-04T11:29:38.037Z,27.98
2023-02-04T11:32:26.670Z,27.00
2023-02-04T11:34:55.700Z,20.58
2023-02-04T11:37:38.925Z,25.75
2023-02-04T11:40:38.063Z,25.27
2023-02-04T11:43:14.929Z,21.83
2023-02-04T11:45:43.159Z,18.00
2023-02-04T11:48:20.036Z,18.63
2023-02-04T11:51:02.483Z,23.88
2023-02-04T11:53:34.436Z,24.50
2023-02-04T11:56:01.837Z,26.42
2023-02-04T11:58:31.253Z,21.13
2023-02-04T12:00:58.671Z,22.38
2023-02-04T12:03:30.653Z,16.75
2023-02-04T12:05:59.070Z,24.65
2023-02-04T12:08:36.490Z,19.48
2023-02-04T12:11:11.150Z,23.30
2023-02-04T12:13:54.099Z,21.27
2023-02-04T12:16:21.441Z,17.58
2023-02-04T12:18:48.385Z,22.02
2023-02-04T12:21:16.316Z,23.90
2023-02-04T12:23:43.214Z,25.02
2023-02-04T12:26:11.165Z,25.63
2023-02-04T12:28:38.033Z,23.60
2023-02-04T12:31:05.162Z,23.70
2023-02-04T12:33:32.144Z,24.33
2023-02-04T12:35:59.009Z,21.30
2023-02-04T12:38:27.666Z,27.45
2023-02-04T12:40:54.478Z,18.65
2023-02-04T12:43:21.274Z,18.45
2023-02-04T12:45:49.859Z,23.48
2023-02-04T12:48:17.324Z,20.85
2023-02-04T12:50:44.283Z,19.75
2023-02-04T12:53:11.280Z,21.98
2023-02-04T12:55:38.197Z,20.60
2023-02-04T12:58:04.996Z,16.70
2023-02-04T13:00:32.031Z,15.90
2023-02-04T13:02:59.028Z,17.17
2023-02-04T13:05:27.035Z,24.00
2023-02-04T13:07:54.259Z,20.95
2023-02-04T13:10:23.866Z,22.95
2023-02-04T13:12:51.525Z,19.67
2023-02-04T13:15:19.110Z,18.85
2023-02-04T13:17:45.989Z,21.77
2023-02-04T13:20:13.349Z,17.92
2023-02-04T13:22:40.316Z,25.33
2023-02-04T13:25:07.494Z,20.98
2023-02-04T13:27:34.382Z,20.33
2023-02-04T13:30:01.261Z,20.08
2023-02-04T13:32:28.170Z,19.42
2023-02-04T13:34:54.936Z,21.73
2023-02-04T13:37:21.804Z,18.70
2023-02-04T13:39:48.633Z,14.40
2023-02-04T13:42:15.542Z,16.48
2023-02-04T13:44:42.536Z,17.50
2023-02-04T13:47:09.523Z,16.42
2023-02-04T13:49:36.339Z,14.95
2023-02-04T13:52:03.221Z,18.92
2023-02-04T13:54:29.997Z,18.73
2023-02-04T13:56:56.864Z,18.60
2023-02-04T13:59:23.618Z,22.95
2023-02-04T14:01:50.410Z,13.88
2023-02-04T14:04:17.358Z,15.82
2023-02-04T14:06:44.154Z,19.67
2023-02-04T14:09:12.194Z,15.27
2023-02-04T14:11:40.195Z,12.68
2023-02-04T14:14:07.807Z,15.05
2023-02-04T14:16:36.923Z,13.50
2023-02-04T14:19:05.385Z,14.52
2023-02-04T14:21:32.973Z,12.32
2023-02-04T14:23:59.758Z,12.98
2023-02-04T14:26:26.528Z,14.88
2023-02-04T14:28:53.405Z,10.88
2023-02-04T14:31:20.217Z,20.52
2023-02-04T14:33:49.877Z,12.48
2023-02-04T14:36:17.141Z,14.85
2023-02-04T14:38:44.056Z,11.05
2023-02-04T14:41:16.114Z,15.05
2023-02-04T14:43:43.000Z,14.23
2023-02-04T14:46:10.051Z,11.68
2023-02-04T14:48:37.015Z,14.57
2023-02-04T14:51:04.621Z,15.55
2023-02-04T14:53:31.795Z,15.70
2023-02-04T14:55:58.637Z,13.30
2023-02-04T14:58:27.859Z,11.10
2023-02-04T15:00:55.626Z,13.70
2023-02-04T15:03:22.956Z,13.73
2023-02-04T15:05:49.751Z,16.58
2023-02-04T15:08:16.685Z,18.45
2023-02-04T15:10:43.534Z,15.35
2023-02-04T15:13:11.244Z,12.55
2023-02-04T15:15:38.197Z,17.55
2023-02-04T15:18:05.192Z,11.27
2023-02-04T15:20:32.328Z,15.88
2023-02-04T15:23:00.774Z,13.10
2023-02-04T15:25:28.160Z,14.15
2023-02-04T15:27:55.102Z,13.07
2023-02-04T15:30:22.065Z,12.52
2023-02-04T15:32:48.929Z,15.25
2023-02-04T15:35:15.937Z,13.40
2023-02-04T15:37:42.800Z,11.95
2023-02-04T15:40:11.400Z,15.88
2023-02-04T15:42:38.352Z,17.27
2023-02-04T15:45:06.409Z,17.33
2023-02-04T15:47:33.456Z,14.98
2023-02-04T15:50:01.498Z,16.17
2023-02-04T15:52:29.382Z,10.15
2023-02-04T15:54:56.377Z,13.18
2023-02-04T15:57:23.216Z,13.05
2023-02-04T15:59:50.241Z,13.57
2023-02-04T16:02:17.192Z,13.93
2023-02-04T16:04:45.229Z,12.38
2023-02-04T16:07:12.372Z,15.15
2023-02-04T16:09:39.242Z,16.52
2023-02-04T16:12:06.374Z,14.10
2023-02-04T16:14:33.153Z,12.73
2023-02-04T16:17:01.557Z,15.27
2023-02-04T16:19:29.124Z,16.77
2023-02-04T16:21:56.229Z,11.32
2023-02-04T16:24:23.382Z,14.30
2023-02-04T16:26:50.178Z,16.40
2023-02-04T16:29:17.296Z,14.98
2023-02-04T16:31:44.297Z,12.55
2023-02-04T16:34:11.207Z,13.70
2023-02-04T16:36:38.000Z,14.77
2023-02-04T16:39:05.312Z,8.90
2023-02-04T16:41:32.352Z,14.35
2023-02-04T16:44:00.156Z,10.57
2023-02-04T16:46:28.633Z,15.50
2023-02-04T16:48:55.717Z,13.85
2023-02-04T16:51:22.754Z,13.73
2023-02-04T16:53:50.338Z,15.82
2023-02-04T16:56:17.259Z,14.38
2023-02-04T16:58:44.744Z,16.77
2023-02-04T17:01:11.681Z,16.52
2023-02-04T17:03:38.595Z,14.90
2023-02-04T17:06:05.735Z,13.93
2023-02-04T17:08:32.557Z,12.52
2023-02-04T17:11:18.076Z,18.13
2023-02-04T17:13:44.952Z,16.50
2023-02-04T17:16:11.722Z,21.52
2023-02-04T17:18:38.706Z,20.88
2023-02-04T17:21:05.689Z,19.02
2023-02-04T17:23:33.229Z,16.73
2023-02-04T17:26:00.025Z,15.63
2023-02-04T17:28:26.883Z,14.23
2023-02-04T17:30:53.803Z,15.90
2023-02-04T17:33:20.979Z,15.80
2023-02-04T17:35:47.973Z,13.65
2023-02-04T17:38:15.060Z,14.77
2023-02-04T17:40:42.653Z,15.77
2023-02-04T17:43:09.621Z,17.50
2023-02-04T17:45:38.106Z,16.70
2023-02-04T17:48:05.491Z,18.58
2023-02-04T17:53:04.419Z,24.15
2023-02-04T17:55:33.870Z,26.70
2023-02-04T17:58:11.823Z,19.52
2023-02-04T18:00:39.677Z,16.90
2023-02-04T18:03:19.943Z,20.42
2023-02-04T18:05:51.841Z,12.68
2023-02-04T18:08:30.433Z,20.10
2023-02-04T18:10:57.652Z,18.08
2023-02-04T18:13:31.617Z,14.30
2023-02-04T18:16:02.900Z,16.60
2023-02-04T18:18:38.086Z,14.38
2023-02-04T18:21:30.854Z,20.13
2023-02-04T18:24:27.127Z,20.20
2023-02-04T18:26:58.813Z,23.95
2023-02-04T18:29:35.529Z,18.58
2023-02-04T18:32:39.883Z,18.77
2023-02-04T18:35:31.518Z,11.57
2023-02-04T18:37:58.387Z,16.50
2023-02-04T18:40:31.044Z,16.33
2023-02-04T18:43:21.629Z,18.35
2023-02-04T18:45:48.663Z,17.55
2023-02-04T18:48:21.264Z,19.13
2023-02-04T18:50:51.702Z,15.48
2023-02-04T18:53:28.304Z,18.67
2023-02-04T18:56:01.783Z,18.83
2023-02-04T18:58:40.377Z,19.83
2023-02-04T19:01:10.297Z,20.67
2023-02-04T19:03:59.608Z,18.38
2023-02-04T19:06:32.684Z,19.02
2023-02-04T19:09:35.497Z,18.33
2023-02-04T19:12:22.202Z,21.65
2023-02-04T19:14:49.222Z,19.17
2023-02-04T19:17:29.696Z,16.88
2023-02-04T19:20:17.726Z,23.95
2023-02-04T19:22:54.939Z,17.60
2023-02-04T19:25:46.592Z,17.13
2023-02-04T19:28:25.337Z,18.77
2023-02-04T19:31:08.143Z,21.08
2023-02-04T19:33:43.008Z,18.38
2023-02-04T19:36:37.016Z,18.55
2023-02-04T19:39:40.243Z,18.25
2023-02-04T19:42:28.163Z,20.35
2023-02-04T19:45:00.061Z,24.80
2023-02-04T19:47:37.478Z,20.05
2023-02-04T19:50:13.361Z,19.50
2023-02-04T19:52:56.027Z,16.05
2023-02-04T19:55:29.055Z,17.92
2023-02-04T19:58:20.341Z,17.85
2023-02-04T20:01:15.928Z,20.45
2023-02-04T20:03:45.458Z,14.80
2023-02-04T20:06:30.017Z,18.70
2023-02-04T20:09:04.106Z,22.33
2023-02-04T20:11:43.293Z,21.92
2023-02-04T20:14:15.466Z,19.40
2023-02-04T20:17:10.414Z,19.80
2023-02-04T20:19:37.962Z,23.55
2023-02-04T20:22:23.558Z,25.13
2023-02-04T20:24:56.207Z,21.98
2023-02-04T20:27:41.536Z,22.23
2023-02-04T20:30:09.339Z,20.00
2023-02-04T20:32:44.773Z,21.88
2023-02-04T20:35:17.339Z,23.10
2023-02-04T20:37:48.601Z,21.00
2023-02-04T20:40:22.254Z,23.52
2023-02-04T20:42:58.372Z,26.40
2023-02-04T20:45:49.500Z,24.00
2023-02-04T20:48:16.306Z,24.90
2023-02-04T20:50:52.064Z,22.13
2023-02-04T20:53:49.492Z,22.15
2023-02-04T20:56:22.489Z,28.58
2023-02-04T20:58:50.622Z,27.77
2023-02-04T21:01:34.211Z,22.52
2023-02-04T21:04:26.168Z,27.25
2023-02-04T21:06:58.377Z,24.80
2023-02-04T21:09:27.588Z,25.42
2023-02-04T21:11:56.724Z,22.77
2023-02-04T21:14:26.147Z,26.05
2023-02-04T21:16:54.753Z,20.40
2023-02-04T21:19:23.978Z,21.38
2023-02-04T21:21:51.487Z,19.58
2023-02-04T21:24:18.556Z,20.88
2023-02-04T21:26:45.408Z,27.27
2023-02-04T21:29:12.277Z,22.08
2023-02-04T21:31:39.462Z,18.23
2023-02-04T21:34:07.112Z,23.48
2023-02-04T21:36:34.158Z,22.73
2023-02-04T21:39:01.178Z,19.80
2023-02-04T21:41:28.108Z,23.75
2023-02-04T21:43:55.015Z,18.02
2023-02-04T21:46:21.975Z,18.55
2023-02-04T21:48:48.819Z,23.95
2023-02-04T21:51:15.963Z,28.40
2023-02-04T21:53:44.231Z,21.85
2023-02-04T21:56:11.486Z,24.35
2023-02-04T21:58:41.194Z,19.77
2023-02-04T22:01:07.997Z,22.92
2023-02-04T22:03:35.157Z,19.45
2023-02-04T22:06:01.989Z,26.83
2023-02-04T22:08:28.776Z,24.17
2023-02-04T22:10:55.594Z,21.98
2023-02-04T22:13:22.353Z,25.35
2023-02-04T22:15:49.157Z,19.30
2023-02-04T22:18:16.118Z,18.30
2023-02-04T22:20:43.033Z,23.27
2023-02-04T22:23:09.836Z,21.38
2023-02-04T22:25:36.678Z,21.45
2023-02-04T22:28:03.646Z,26.10
2023-02-04T22:30:30.543Z,23.58
2023-02-04T22:32:59.943Z,21.77
2023-02-04T22:35:29.595Z,24.23
2023-02-04T22:37:57.516Z,29.83
2023-02-04T22:40:24.337Z,27.50
2023-02-04T22:42:51.145Z,22.23
2023-02-04T22:45:18.017Z,20.33
2023-02-04T22:47:45.018Z,23.58
2023-02-04T22:50:11.952Z,24.98
2023-02-04T22:52:38.716Z,27.20
2023-02-04T22:55:06.194Z,22.50
2023-02-04T22:57:33.021Z,28.58
2023-02-04T22:59:59.855Z,30.10
2023-02-04T23:02:26.616Z,23.38
2023-02-04T23:04:53.474Z,27.35
2023-02-04T23:07:20.288Z,27.73
2023-02-04T23:09:47.174Z,25.00
2023-02-04T23:12:14.337Z,30.10
2023-02-04T23:14:45.028Z,30.83
2023-02-04T23:17:13.944Z,35.40
2023-02-04T23:19:41.349Z,33.33
2023-02-04T23:22:10.392Z,32.58
2023-02-04T23:24:38.473Z,40.28
2023-02-04T23:27:06.020Z,37.33
2023-02-04T23:29:35.117Z,33.47
2023-02-04T23:32:03.785Z,35.28
2023-02-04T23:34:31.301Z,35.35
2023-02-04T23:36:58.278Z,39.13
2023-02-04T23:39:25.194Z,36.72
2023-02-04T23:41:52.024Z,38.35
2023-02-04T23:44:19.076Z,37.40
2023-02-04T23:46:45.932Z,35.60
2023-02-04T23:49:12.889Z,34.60
2023-02-04T23:51:40.028Z,35.60
2023-02-04T23:54:07.217Z,35.33
2023-02-04T23:56:34.520Z,35.78
2023-02-04T23:59:01.689Z,33.60
